createdAt,value
2024-03-05T00:00:46.437Z,71.64
2024-03-05T00:03:13.353Z,71.53
2024-03-05T00:05:40.140Z,71.68
2024-03-05T00:08:07.830Z,71.69
2024-03-05T00:10:34.631Z,71.75
2024-03-05T00:13:01.495Z,71.71
2024-03-05T00:15:28.451Z,71.73
2024-03-05T00:17:55.649Z,71.60
2024-03-05T00:20:22.897Z,71.60
2024-03-05T00:22:50.184Z,71.21
2024-03-05T00:25:18.014Z,71.17
2024-03-05T00:27:49.557Z,70.85
2024-03-05T00:30:17.148Z,71.13
2024-03-05T00:32:44.185Z,70.94
2024-03-05T00:35:11.199Z,71.01
2024-03-05T00:37:39.241Z,70.79
2024-03-05T00:40:10.453Z,70.70
2024-03-05T00:42:37.893Z,70.58
2024-03-05T00:45:09.214Z,70.64
2024-03-05T00:47:37.308Z,70.79
2024-03-05T00:50:08.565Z,70.75
2024-03-05T00:52:35.698Z,70.66
2024-03-05T00:55:03.019Z,70.67
2024-03-05T00:57:30.560Z,70.20
2024-03-05T00:59:57.675Z,70.27
2024-03-05T01:02:24.986Z,70.45
2024-03-05T01:04:54.574Z,70.22
2024-03-05T01:07:21.880Z,70.19
2024-03-05T01:09:50.312Z,70.11
2024-03-05T01:12:17.802Z,70.09
2024-03-05T01:14:45.996Z,70.25
2024-03-05T01:17:14.130Z,70.18
2024-03-05T01:19:41.384Z,70.14
2024-03-05T01:22:08.368Z,70.22
2024-03-05T01:24:35.137Z,70.04
2024-03-05T01:27:01.987Z,70.11
2024-03-05T01:29:28.782Z,70.39
2024-03-05T01:32:00.787Z,70.18
2024-03-05T01:34:28.080Z,69.89
2024-03-05T01:36:58.901Z,70.11
2024-03-05T01:39:30.060Z,69.88
2024-03-05T01:41:57.729Z,69.86
2024-03-05T01:44:25.731Z,69.82
2024-03-05T01:46:55.585Z,70.04
2024-03-05T01:49:23.343Z,69.94
2024-03-05T01:51:50.784Z,70.13
2024-03-05T01:54:18.657Z,69.89
2024-03-05T01:56:58.424Z,70.10
2024-03-05T01:59:26.299Z,70.21
2024-03-05T02:01:54.300Z,70.52
2024-03-05T02:04:22.473Z,70.38
2024-03-05T02:06:53.089Z,70.09
2024-03-05T02:09:22.939Z,70.11
2024-03-05T02:11:56.543Z,70.27
2024-03-05T02:14:29.958Z,70.06
2024-03-05T02:17:01.346Z,70.08
2024-03-05T02:19:29.876Z,70.14
2024-03-05T02:21:58.973Z,70.51
2024-03-05T02:24:25.652Z,70.36
2024-03-05T02:26:53.774Z,70.27
2024-03-05T02:29:20.721Z,70.26
2024-03-05T02:31:47.595Z,70.17
2024-03-05T02:34:14.787Z,70.25
2024-03-05T02:36:42.406Z,70.24
2024-03-05T02:39:09.163Z,70.00
2024-03-05T02:41:36.307Z,70.29
2024-03-05T02:44:05.179Z,70.45
2024-03-05T02:46:32.365Z,70.56
2024-03-05T02:49:01.054Z,70.36
2024-03-05T02:51:30.117Z,70.68
2024-03-05T02:53:57.155Z,70.70
2024-03-05T02:56:24.305Z,70.59
2024-03-05T02:58:51.211Z,70.40
2024-03-05T03:01:18.375Z,70.36
2024-03-05T03:03:46.067Z,70.40
2024-03-05T03:06:20.458Z,70.48
2024-03-05T03:08:47.236Z,70.55
2024-03-05T03:11:18.352Z,70.18
2024-03-05T03:13:48.067Z,70.33
2024-03-05T03:16:15.502Z,70.60
2024-03-05T03:18:45.820Z,70.71
2024-03-05T03:21:13.042Z,70.61
2024-03-05T03:23:40.420Z,70.78
2024-03-05T03:26:08.198Z,70.68
2024-03-05T03:28:35.160Z,70.56
2024-03-05T03:31:02.074Z,70.68
2024-03-05T03:33:28.889Z,70.64
2024-03-05T03:35:57.071Z,70.58
2024-03-05T03:38:25.072Z,70.33
2024-03-05T03:40:53.838Z,70.38
2024-03-05T03:43:21.217Z,70.67
2024-03-05T03:45:49.385Z,70.52
2024-03-05T03:48:16.504Z,70.90
2024-03-05T03:50:46.313Z,70.80
2024-03-05T03:53:13.100Z,70.84
2024-03-05T03:55:39.962Z,70.83
2024-03-05T03:58:08.321Z,71.04
2024-03-05T04:00:35.132Z,71.16
2024-03-05T04:03:02.086Z,70.93
2024-03-05T04:05:28.856Z,70.89
2024-03-05T04:07:55.925Z,70.79
2024-03-05T04:10:24.281Z,70.93
2024-03-05T04:12:51.308Z,71.12
2024-03-05T04:15:20.738Z,70.89
2024-03-05T04:17:47.965Z,70.57
2024-03-05T04:20:16.598Z,70.77
2024-03-05T04:22:44.483Z,70.97
2024-03-05T04:25:11.511Z,70.85
2024-03-05T04:27:43.602Z,70.72
2024-03-05T04:30:14.012Z,70.84
2024-03-05T04:32:58.695Z,71.09
2024-03-05T04:35:28.911Z,70.87
2024-03-05T04:37:57.448Z,70.63
2024-03-05T04:40:24.494Z,70.91
2024-03-05T04:42:51.671Z,70.90
2024-03-05T04:45:19.019Z,70.94
2024-03-05T04:47:46.222Z,71.26
2024-03-05T04:50:15.856Z,70.88
2024-03-05T04:52:44.085Z,70.96
2024-03-05T04:55:11.525Z,71.29
2024-03-05T04:57:38.617Z,71.09
2024-03-05T05:00:21.383Z,70.93
2024-03-05T05:02:50.336Z,70.89
2024-03-05T05:05:17.543Z,70.77
2024-03-05T05:07:45.818Z,70.87
2024-03-05T05:10:12.665Z,70.85
2024-03-05T05:12:40.872Z,70.94
2024-03-05T05:15:08.903Z,70.61
2024-03-05T05:17:35.987Z,70.75
2024-03-05T05:20:10.113Z,70.89
2024-03-05T05:22:38.737Z,71.11
2024-03-05T05:25:07.830Z,71.25
2024-03-05T05:27:36.614Z,71.30
2024-03-05T05:30:09.303Z,71.30
2024-03-05T05:32:40.834Z,71.32
2024-03-05T05:35:09.477Z,71.36
2024-03-05T05:37:37.978Z,71.38
2024-03-05T05:40:06.988Z,71.31
2024-03-05T05:42:33.904Z,71.10
2024-03-05T05:45:00.701Z,70.93
2024-03-05T05:47:27.861Z,70.96
2024-03-05T05:49:54.908Z,70.93
2024-03-05T05:52:23.285Z,70.91
2024-03-05T05:54:51.045Z,71.02
2024-03-05T05:57:19.167Z,70.96
2024-03-05T05:59:46.508Z,71.06
2024-03-05T06:02:14.570Z,71.14
2024-03-05T06:04:42.889Z,71.34
2024-03-05T06:07:12.134Z,71.12
2024-03-05T06:09:41.894Z,71.40
2024-03-05T06:12:08.962Z,71.19
2024-03-05T06:14:35.824Z,71.44
2024-03-05T06:17:03.006Z,71.29
2024-03-05T06:19:29.992Z,71.24
2024-03-05T06:21:57.653Z,71.41
2024-03-05T06:24:25.111Z,71.15
2024-03-05T06:26:51.987Z,71.10
2024-03-05T06:29:18.913Z,71.22
2024-03-05T06:31:45.938Z,71.45
2024-03-05T06:34:12.829Z,71.60
2024-03-05T06:36:39.660Z,71.68
2024-03-05T06:39:19.678Z,71.55
2024-03-05T06:41:50.259Z,71.66
2024-03-05T06:44:21.498Z,71.80
2024-03-05T06:46:50.175Z,71.80
2024-03-05T06:49:21.941Z,71.92
2024-03-05T06:51:56.869Z,71.57
2024-03-05T06:54:49.800Z,71.69
2024-03-05T06:57:16.869Z,71.42
2024-03-05T06:59:43.712Z,71.30
2024-03-05T07:02:11.224Z,71.44
2024-03-05T07:04:38.170Z,71.25
2024-03-05T07:07:05.563Z,71.38
2024-03-05T07:09:33.245Z,71.42
2024-03-05T07:12:00.992Z,71.39
2024-03-05T07:14:29.213Z,71.17
2024-03-05T07:16:56.550Z,71.36
2024-03-05T07:19:23.612Z,71.57
2024-03-05T07:21:51.716Z,71.56
2024-03-05T07:24:18.526Z,71.80
2024-03-05T07:26:53.091Z,71.84
2024-03-05T07:29:27.889Z,72.00
2024-03-05T07:31:55.942Z,71.87
2024-03-05T07:34:22.811Z,72.14
2024-03-05T07:36:50.128Z,72.07
2024-03-05T07:39:18.033Z,71.96
2024-03-05T07:41:44.909Z,71.68
2024-03-05T07:44:11.748Z,71.70
2024-03-05T07:46:39.149Z,71.70
2024-03-05T07:49:06.000Z,72.03
2024-03-05T07:51:41.141Z,72.19
2024-03-05T07:54:12.502Z,72.36
2024-03-05T07:56:39.387Z,72.31
2024-03-05T07:59:06.790Z,72.56
2024-03-05T08:01:34.876Z,72.86
2024-03-05T08:04:02.375Z,72.82
2024-03-05T08:06:30.305Z,72.65
2024-03-05T08:08:57.379Z,72.75
2024-03-05T08:11:24.755Z,72.56
2024-03-05T08:13:52.397Z,72.39
2024-03-05T08:16:19.381Z,72.30
2024-03-05T08:18:47.324Z,72.12
2024-03-05T08:21:14.940Z,71.74
2024-03-05T08:23:41.975Z,71.74
2024-03-05T08:26:09.651Z,71.60
2024-03-05T08:28:36.597Z,71.62
2024-03-05T08:31:03.618Z,71.52
2024-03-05T08:33:32.380Z,71.12
2024-03-05T08:35:59.241Z,71.15
2024-03-05T08:38:26.213Z,70.89
2024-03-05T08:40:53.051Z,71.08
2024-03-05T08:43:20.265Z,70.91
2024-03-05T08:45:48.935Z,70.86
2024-03-05T08:48:15.848Z,70.67
2024-03-05T08:50:42.804Z,70.54
2024-03-05T08:53:11.233Z,70.48
2024-03-05T08:55:38.278Z,70.46
2024-03-05T08:58:05.520Z,70.51
2024-03-05T09:00:41.964Z,70.33
2024-03-05T09:03:11.856Z,69.95
2024-03-05T09:05:39.742Z,70.15
2024-03-05T09:08:12.182Z,69.73
2024-03-05T09:10:40.080Z,69.87
2024-03-05T09:13:06.959Z,69.70
2024-03-05T09:15:33.770Z,69.77
2024-03-05T09:18:00.676Z,69.76
2024-03-05T09:20:27.591Z,69.90
2024-03-05T09:22:54.589Z,69.82
2024-03-05T09:25:21.620Z,69.66
2024-03-05T09:27:48.660Z,69.42
2024-03-05T09:30:16.998Z,69.00
2024-03-05T09:32:45.805Z,69.12
2024-03-05T09:35:14.605Z,69.05
2024-03-05T09:37:44.527Z,68.86
2024-03-05T09:40:19.467Z,68.47
2024-03-05T09:42:47.341Z,68.14
2024-03-05T09:45:16.425Z,67.83
2024-03-05T09:47:44.128Z,67.87
2024-03-05T09:50:15.111Z,67.33
2024-03-05T09:52:45.066Z,67.26
2024-03-05T09:55:13.535Z,67.27
2024-03-05T09:57:42.191Z,67.25
2024-03-05T10:00:16.746Z,67.21
2024-03-05T10:02:49.134Z,67.34
2024-03-05T10:05:23.857Z,67.32
2024-03-05T10:07:51.119Z,66.87
2024-03-05T10:10:22.620Z,66.94
2024-03-05T10:12:52.746Z,66.65
2024-03-05T10:15:24.440Z,66.49
2024-03-05T10:17:54.406Z,66.19
2024-03-05T10:20:31.630Z,65.85
2024-03-05T10:23:00.347Z,65.46
2024-03-05T10:25:29.345Z,65.04
2024-03-05T10:27:57.219Z,65.42
2024-03-05T10:30:36.338Z,65.70
2024-03-05T10:33:11.674Z,66.05
2024-03-05T10:35:40.101Z,65.80
2024-03-05T10:38:13.983Z,65.50
2024-03-05T10:40:46.045Z,65.51
2024-03-05T10:43:18.127Z,66.08
2024-03-05T10:45:46.251Z,66.38
2024-03-05T10:48:16.437Z,66.37
2024-03-05T10:50:46.134Z,66.40
2024-03-05T10:53:14.260Z,66.28
2024-03-05T10:55:44.441Z,66.02
2024-03-05T10:58:11.319Z,65.36
2024-03-05T11:00:39.786Z,65.00
2024-03-05T11:03:11.564Z,65.09
2024-03-05T11:05:51.854Z,64.99
2024-03-05T11:08:25.888Z,64.83
2024-03-05T11:11:00.544Z,64.82
2024-03-05T11:13:28.471Z,64.68
2024-03-05T11:15:56.253Z,64.41
2024-03-05T11:18:34.394Z,63.67
2024-03-05T11:21:03.076Z,64.04
2024-03-05T11:23:35.881Z,63.85
2024-03-05T11:26:08.221Z,63.60
2024-03-05T11:28:37.291Z,63.08
2024-03-05T11:31:11.667Z,62.64
2024-03-05T11:33:41.912Z,62.43
2024-03-05T11:36:23.153Z,62.21
2024-03-05T11:39:03.228Z,62.34
2024-03-05T11:41:34.290Z,62.34
2024-03-05T11:44:01.917Z,61.38
2024-03-05T11:46:40.995Z,61.33
2024-03-05T11:49:08.417Z,61.53
2024-03-05T11:51:35.347Z,61.58
2024-03-05T11:54:02.228Z,61.09
2024-03-05T11:56:29.003Z,60.38
2024-03-05T11:58:56.740Z,59.56
2024-03-05T12:01:24.842Z,59.73
2024-03-05T12:04:09.434Z,59.06
2024-03-05T12:06:40.780Z,58.81
2024-03-05T12:09:21.736Z,58.78
2024-03-05T12:12:04.486Z,58.59
2024-03-05T12:14:36.105Z,58.14
2024-03-05T12:17:05.557Z,58.28
2024-03-05T12:19:32.982Z,58.18
2024-03-05T12:22:01.181Z,57.82
2024-03-05T12:24:29.248Z,57.60
2024-03-05T12:26:57.568Z,57.84
2024-03-05T12:29:32.634Z,56.81
2024-03-05T12:32:04.291Z,57.23
2024-03-05T12:34:31.353Z,56.96
2024-03-05T12:36:58.268Z,56.54
2024-03-05T12:39:26.272Z,56.15
2024-03-05T12:42:01.067Z,55.66
2024-03-05T12:44:29.695Z,55.72
2024-03-05T12:47:08.287Z,55.22
2024-03-05T12:49:46.629Z,55.28
2024-03-05T12:52:18.786Z,55.20
2024-03-05T12:54:46.488Z,55.47
2024-03-05T12:57:33.183Z,55.48
2024-03-05T13:00:01.982Z,55.03
2024-03-05T13:02:29.641Z,54.42
2024-03-05T13:04:59.290Z,53.95
2024-03-05T13:07:27.278Z,53.46
2024-03-05T13:09:58.279Z,53.28
2024-03-05T13:12:25.607Z,52.70
2024-03-05T13:14:52.454Z,52.38
2024-03-05T13:17:19.931Z,52.14
2024-03-05T13:19:46.861Z,51.92
2024-03-05T13:22:14.012Z,51.96
2024-03-05T13:24:41.242Z,51.66
2024-03-05T13:27:08.489Z,51.39
2024-03-05T13:29:36.975Z,51.46
2024-03-05T13:32:05.937Z,50.97
2024-03-05T13:34:33.048Z,51.84
2024-03-05T13:37:00.273Z,51.86
2024-03-05T13:39:27.373Z,51.99
2024-03-05T13:41:55.238Z,52.30
2024-03-05T13:44:24.227Z,52.27
2024-03-05T13:46:52.805Z,51.41
2024-03-05T13:49:21.920Z,51.76
2024-03-05T13:51:49.261Z,52.00
2024-03-05T13:54:16.583Z,52.15
2024-03-05T13:56:44.638Z,52.06
2024-03-05T13:59:12.591Z,52.09
2024-03-05T14:01:40.608Z,52.20
2024-03-05T14:04:13.672Z,52.58
2024-03-05T14:06:41.674Z,52.58
2024-03-05T14:09:12.129Z,52.90
2024-03-05T14:11:42.298Z,53.21
2024-03-05T14:14:10.205Z,53.04
2024-03-05T14:16:39.861Z,52.82
2024-03-05T14:19:07.111Z,53.09
2024-03-05T14:21:35.053Z,53.42
2024-03-05T14:24:01.985Z,53.67
2024-03-05T14:26:29.237Z,54.00
2024-03-05T14:28:58.101Z,53.99
2024-03-05T14:31:26.397Z,53.90
2024-03-05T14:33:53.227Z,54.37
2024-03-05T14:36:22.576Z,54.60
2024-03-05T14:38:49.563Z,55.14
2024-03-05T14:41:16.421Z,54.90
2024-03-05T14:43:43.377Z,55.08
2024-03-05T14:46:10.293Z,55.40
2024-03-05T14:48:38.887Z,55.12
2024-03-05T14:51:07.374Z,54.92
2024-03-05T14:53:35.006Z,54.99
2024-03-05T14:56:03.104Z,55.05
2024-03-05T14:58:31.223Z,55.51
2024-03-05T15:01:00.957Z,55.46
2024-03-05T15:03:27.991Z,55.33
2024-03-05T15:05:54.829Z,55.60
2024-03-05T15:08:22.547Z,55.96
2024-03-05T15:10:50.454Z,56.48
2024-03-05T15:13:18.430Z,56.39
2024-03-05T15:15:45.690Z,56.10
2024-03-05T15:18:12.687Z,56.07
2024-03-05T15:20:40.163Z,56.66
2024-03-05T15:23:07.438Z,56.68
2024-03-05T15:25:38.091Z,56.72
2024-03-05T15:28:08.250Z,56.90
2024-03-05T15:30:36.055Z,56.78
2024-03-05T15:33:04.289Z,57.04
2024-03-05T15:35:31.529Z,57.27
2024-03-05T15:37:59.841Z,57.41
2024-03-05T15:40:28.423Z,57.60
2024-03-05T15:42:57.158Z,57.74
2024-03-05T15:45:29.219Z,57.84
2024-03-05T15:47:56.288Z,57.68
2024-03-05T15:50:24.824Z,57.77
2024-03-05T15:52:57.240Z,58.02
2024-03-05T15:55:26.350Z,58.41
2024-03-05T15:57:53.755Z,58.73
2024-03-05T16:00:22.041Z,58.71
2024-03-05T16:02:49.158Z,58.62
2024-03-05T16:05:25.011Z,58.75
2024-03-05T16:07:59.040Z,58.93
2024-03-05T16:10:30.737Z,58.91
2024-03-05T16:12:59.708Z,58.94
2024-03-05T16:15:27.409Z,59.20
2024-03-05T16:17:57.722Z,59.32
2024-03-05T16:20:25.556Z,59.44
2024-03-05T16:22:56.318Z,59.54
2024-03-05T16:25:28.198Z,59.65
2024-03-05T16:27:57.006Z,60.12
2024-03-05T16:30:25.486Z,59.98
2024-03-05T16:32:56.168Z,60.11
2024-03-05T16:35:26.363Z,60.34
2024-03-05T16:37:53.548Z,60.57
2024-03-05T16:40:22.075Z,61.20
2024-03-05T16:42:56.526Z,61.14
2024-03-05T16:45:28.124Z,60.82
2024-03-05T16:47:57.473Z,60.95
2024-03-05T16:50:28.040Z,61.43
2024-03-05T16:52:59.940Z,61.28
2024-03-05T16:55:27.978Z,61.49
2024-03-05T16:57:57.338Z,61.82
2024-03-05T17:00:37.926Z,62.14
2024-03-05T17:03:09.003Z,62.28
2024-03-05T17:05:38.290Z,62.68
2024-03-05T17:08:08.133Z,63.00
2024-03-05T17:10:35.588Z,62.97
2024-03-05T17:13:05.474Z,63.22
2024-03-05T17:15:39.747Z,63.01
2024-03-05T17:18:11.933Z,63.04
2024-03-05T17:20:39.413Z,62.94
2024-03-05T17:23:07.143Z,62.99
2024-03-05T17:25:39.754Z,63.10
2024-03-05T17:28:09.700Z,63.22
2024-03-05T17:30:39.653Z,63.37
2024-03-05T17:33:10.864Z,63.65
2024-03-05T17:35:40.478Z,63.92
2024-03-05T17:38:17.096Z,64.05
2024-03-05T17:40:44.160Z,64.34
2024-03-05T17:43:11.132Z,64.42
2024-03-05T17:45:38.037Z,64.68
2024-03-05T17:48:08.766Z,64.68
2024-03-05T17:50:36.609Z,64.78
2024-03-05T17:53:06.792Z,64.68
2024-03-05T17:55:36.273Z,64.90
2024-03-05T17:58:05.743Z,65.30
2024-03-05T18:00:43.063Z,65.64
2024-03-05T18:03:12.327Z,66.03
2024-03-05T18:05:40.341Z,65.91
2024-03-05T18:08:08.456Z,65.72
2024-03-05T18:10:38.398Z,65.83
2024-03-05T18:13:07.309Z,65.63
2024-03-05T18:15:35.333Z,65.79
2024-03-05T18:18:03.821Z,66.35
2024-03-05T18:20:30.925Z,66.99
2024-03-05T18:23:01.751Z,67.54
2024-03-05T18:25:35.586Z,67.78
2024-03-05T18:28:05.696Z,68.15
2024-03-05T18:30:36.326Z,68.92
2024-03-05T18:33:08.367Z,69.96
2024-03-05T18:35:38.305Z,70.03
2024-03-05T18:38:16.687Z,70.85
2024-03-05T18:40:52.026Z,70.98
2024-03-05T18:43:20.844Z,71.16
2024-03-05T18:45:47.833Z,71.41
2024-03-05T18:48:14.726Z,71.87
2024-03-05T18:50:41.788Z,72.29
2024-03-05T18:53:09.389Z,72.19
2024-03-05T18:55:37.772Z,71.94
2024-03-05T18:58:09.873Z,71.77
2024-03-05T19:00:41.678Z,72.13
2024-03-05T19:03:08.713Z,72.24
2024-03-05T19:05:35.699Z,72.63
2024-03-05T19:08:03.100Z,72.83
2024-03-05T19:10:31.636Z,73.17
2024-03-05T19:12:59.856Z,73.42
2024-03-05T19:15:29.066Z,73.57
2024-03-05T19:17:56.083Z,73.48
2024-03-05T19:20:23.177Z,73.56
2024-03-05T19:22:50.178Z,73.40
2024-03-05T19:25:19.010Z,73.83
2024-03-05T19:27:46.296Z,74.10
2024-03-05T19:30:17.914Z,74.40
2024-03-05T19:32:46.311Z,74.28
2024-03-05T19:35:17.027Z,74.15
2024-03-05T19:37:45.869Z,74.21
2024-03-05T19:40:25.232Z,74.15
2024-03-05T19:42:58.633Z,74.16
2024-03-05T19:45:29.238Z,73.85
2024-03-05T19:47:58.530Z,73.88
2024-03-05T19:50:25.535Z,73.33
2024-03-05T19:52:56.455Z,73.40
2024-03-05T19:55:24.361Z,73.68
2024-03-05T19:57:51.548Z,73.88
2024-03-05T20:00:26.655Z,73.92
2024-03-05T20:02:54.981Z,73.68
2024-03-05T20:05:23.819Z,73.84
2024-03-05T20:07:53.091Z,73.96
2024-03-05T20:10:22.051Z,74.21
2024-03-05T20:12:49.326Z,74.44
2024-03-05T20:15:16.323Z,74.17
2024-03-05T20:17:44.076Z,74.16
2024-03-05T20:20:17.809Z,74.00
2024-03-05T20:22:49.825Z,74.20
2024-03-05T20:25:22.864Z,74.26
2024-03-05T20:27:53.443Z,74.13
2024-03-05T20:30:22.295Z,73.98
2024-03-05T20:32:49.235Z,74.46
2024-03-05T20:35:24.400Z,74.77
2024-03-05T20:37:52.583Z,74.49
2024-03-05T20:40:21.565Z,74.28
2024-03-05T20:42:48.993Z,74.37
2024-03-05T20:45:16.305Z,74.50
2024-03-05T20:47:43.388Z,74.61
2024-03-05T20:50:11.387Z,74.40
2024-03-05T20:52:38.809Z,74.81
2024-03-05T20:55:06.520Z,74.71
2024-03-05T20:57:34.579Z,74.70
2024-03-05T21:00:07.773Z,74.39
2024-03-05T21:02:38.028Z,74.17
2024-03-05T21:05:06.298Z,74.39
2024-03-05T21:07:33.940Z,74.41
2024-03-05T21:10:08.348Z,74.36
2024-03-05T21:12:40.797Z,74.43
2024-03-05T21:15:12.527Z,74.45
2024-03-05T21:17:40.786Z,74.37
2024-03-05T21:20:09.268Z,74.42
2024-03-05T21:22:39.360Z,74.30
2024-03-05T21:25:10.039Z,74.04
2024-03-05T21:27:39.544Z,73.91
2024-03-05T21:30:10.982Z,73.90
2024-03-05T21:32:38.189Z,74.16
2024-03-05T21:35:08.501Z,74.26
2024-03-05T21:37:36.838Z,74.71
2024-03-05T21:40:08.819Z,74.52
2024-03-05T21:42:36.700Z,74.65
2024-03-05T21:45:04.265Z,75.01
2024-03-05T21:47:32.182Z,75.21
2024-03-05T21:50:01.292Z,75.36
2024-03-05T21:52:28.434Z,75.08
2024-03-05T21:54:55.485Z,75.22
2024-03-05T21:57:22.305Z,75.48
2024-03-05T21:59:49.319Z,75.44
2024-03-05T22:02:16.288Z,75.47
2024-03-05T22:04:44.221Z,75.48
2024-03-05T22:07:11.044Z,75.19
2024-03-05T22:09:38.564Z,75.01
2024-03-05T22:12:06.749Z,75.15
2024-03-05T22:14:33.598Z,75.27
2024-03-05T22:17:02.716Z,75.49
2024-03-05T22:19:29.853Z,75.23
2024-03-05T22:21:56.837Z,75.05
2024-03-05T22:24:23.665Z,75.10
2024-03-05T22:26:50.587Z,75.38
2024-03-05T22:29:17.430Z,75.49
2024-03-05T22:31:44.361Z,75.42
2024-03-05T22:34:12.965Z,75.53
2024-03-05T22:36:40.819Z,75.90
2024-03-05T22:39:07.643Z,76.11
2024-03-05T22:41:34.429Z,76.29
2024-03-05T22:44:01.254Z,76.10
2024-03-05T22:46:28.194Z,75.92
2024-03-05T22:48:55.080Z,76.00
2024-03-05T22:51:21.890Z,76.15
2024-03-05T22:53:48.867Z,75.96
2024-03-05T22:56:15.819Z,75.85
2024-03-05T22:58:42.810Z,75.83
2024-03-05T23:01:09.778Z,75.60
2024-03-05T23:03:36.561Z,75.49
2024-03-05T23:06:08.711Z,75.46
2024-03-05T23:08:42.508Z,75.74
2024-03-05T23:11:11.595Z,75.71
2024-03-05T23:13:38.675Z,75.77
2024-03-05T23:16:06.657Z,76.28
2024-03-05T23:18:33.786Z,76.64
2024-03-05T23:21:01.218Z,76.85
2024-03-05T23:23:28.336Z,77.06
2024-03-05T23:25:55.411Z,77.03
2024-03-05T23:28:22.321Z,76.88
2024-03-05T23:30:50.039Z,77.03
2024-03-05T23:33:17.519Z,77.06
2024-03-05T23:35:44.592Z,77.16
2024-03-05T23:41:03.244Z,77.08
2024-03-05T23:43:30.090Z,77.07
2024-03-05T23:45:56.873Z,76.74
2024-03-05T23:48:23.810Z,76.58
2024-03-05T23:50:50.805Z,76.77
2024-03-05T23:53:19.163Z,77.02
2024-03-05T23:55:46.262Z,76.97
2024-03-05T23:58:13.144Z,77.12
